createdAt,value
2018-06-09T00:00:08.312Z,26.70
2018-06-09T00:01:08.313Z,27.80
2018-06-09T00:02:08.361Z,24.20
2018-06-09T00:03:08.334Z,27.70
2018-06-09T00:04:08.360Z,24.50
2018-06-09T00:05:08.348Z,28.60
2018-06-09T00:06:08.460Z,23.50
2018-06-09T00:07:08.362Z,24.20
2018-06-09T00:08:08.472Z,24.60
2018-06-09T00:09:08.398Z,25.20
2018-06-09T00:10:08.477Z,32.60
2018-06-09T00:11:08.424Z,23.50
2018-06-09T00:12:08.504Z,25.30
2018-06-09T00:13:08.485Z,22.50
2018-06-09T00:14:08.539Z,21.90
2018-06-09T00:15:08.502Z,24.90
2018-06-09T00:16:08.579Z,22.10
2018-06-09T00:17:08.519Z,26.10
2018-06-09T00:18:08.545Z,22.50
2018-06-09T00:19:08.538Z,25.50
2018-06-09T00:20:08.583Z,29.50
2018-06-09T00:21:08.568Z,25.70
2018-06-09T00:22:08.699Z,25.80
2018-06-09T00:23:08.578Z,25.80
2018-06-09T00:24:08.698Z,22.60
2018-06-09T00:25:08.683Z,29.80
2018-06-09T00:26:08.750Z,25.80
2018-06-09T00:27:08.658Z,20.60
2018-06-09T00:28:09.750Z,23.10
2018-06-09T00:29:08.695Z,25.20
2018-06-09T00:30:09.788Z,27.80
2018-06-09T00:31:08.714Z,21.80
2018-06-09T00:32:08.773Z,22.90
2018-06-09T00:33:08.744Z,27.60
2018-06-09T00:34:09.803Z,25.60
2018-06-09T00:35:08.770Z,21.20
2018-06-09T00:36:08.918Z,26.60
2018-06-09T00:37:08.792Z,25.20
2018-06-09T00:38:08.896Z,23.10
2018-06-09T00:39:08.814Z,23.10
2018-06-09T00:40:09.932Z,22.30
2018-06-09T00:41:08.836Z,25.70
2018-06-09T00:42:09.971Z,24.20
2018-06-09T00:43:08.863Z,24.60
2018-06-09T00:44:08.957Z,26.20
2018-06-09T00:45:08.897Z,25.40
2018-06-09T00:46:08.970Z,21.80
2018-06-09T00:47:08.911Z,28.20
2018-06-09T00:48:08.971Z,24.10
2018-06-09T00:49:08.945Z,26.60
2018-06-09T00:50:08.986Z,25.20
2018-06-09T00:51:08.977Z,25.60
2018-06-09T00:52:09.114Z,22.70
2018-06-09T00:53:09.017Z,24.20
2018-06-09T00:54:09.118Z,23.20
2018-06-09T00:55:09.048Z,24.30
2018-06-09T00:56:09.186Z,24.90
2018-06-09T00:57:09.058Z,23.40
2018-06-09T00:58:09.172Z,20.70
2018-06-09T00:59:09.096Z,25.10
2018-06-09T01:07:53.441Z,19.60
2018-06-09T01:08:51.239Z,22.70
2018-06-09T01:09:51.244Z,23.30
2018-06-09T01:10:51.311Z,20.50
2018-06-09T01:11:51.456Z,22.40
2018-06-09T01:12:51.307Z,20.60
2018-06-09T01:13:51.259Z,24.30
2018-06-09T01:14:51.378Z,28.00
2018-06-09T01:15:51.294Z,19.80
2018-06-09T01:16:51.419Z,25.60
2018-06-09T01:17:51.338Z,20.00
2018-06-09T01:18:51.410Z,21.80
2018-06-09T01:19:51.372Z,21.60
2018-06-09T01:20:51.469Z,20.50
2018-06-09T01:21:51.393Z,21.50
2018-06-09T01:22:51.489Z,22.90
2018-06-09T01:23:51.423Z,21.20
2018-06-09T01:24:51.502Z,21.10
2018-06-09T01:25:51.463Z,19.90
2018-06-09T01:26:51.484Z,21.10
2018-06-09T01:27:51.473Z,26.50
2018-06-09T01:28:51.614Z,17.10
2018-06-09T01:29:51.505Z,23.60
2018-06-09T01:30:51.603Z,22.10
2018-06-09T01:31:51.544Z,17.50
2018-06-09T01:32:51.611Z,20.80
2018-06-09T01:33:51.565Z,20.00
2018-06-09T01:34:51.643Z,19.10
2018-06-09T01:35:51.609Z,19.00
2018-06-09T01:36:51.666Z,21.30
2018-06-09T01:37:51.620Z,18.40
2018-06-09T01:38:51.704Z,20.20
2018-06-09T01:39:51.636Z,19.80
2018-06-09T01:40:51.677Z,26.10
2018-06-09T01:41:51.642Z,19.90
2018-06-09T01:42:51.706Z,22.10
2018-06-09T01:43:51.697Z,17.90
2018-06-09T01:44:51.831Z,19.00
2018-06-09T01:45:51.715Z,20.70
2018-06-09T01:46:51.848Z,18.60
2018-06-09T01:47:51.754Z,20.30
2018-06-09T01:48:51.824Z,22.50
2018-06-09T01:49:51.779Z,17.40
2018-06-09T01:50:51.847Z,16.60
2018-06-09T01:51:51.815Z,18.80
2018-06-09T01:52:51.856Z,18.60
2018-06-09T01:53:51.822Z,22.00
2018-06-09T01:54:51.900Z,20.90
2018-06-09T01:55:51.846Z,15.70
2018-06-09T01:56:51.894Z,19.20
2018-06-09T01:57:51.872Z,20.60
2018-06-09T01:58:51.924Z,18.20
2018-06-09T01:59:51.914Z,20.60
2018-06-09T02:00:52.059Z,18.90
2018-06-09T02:01:51.938Z,17.50
2018-06-09T02:02:52.019Z,18.40
2018-06-09T02:03:51.959Z,22.00
2018-06-09T02:04:53.087Z,24.10
2018-06-09T02:05:51.976Z,21.50
2018-06-09T02:06:52.097Z,22.90
2018-06-09T02:07:54.624Z,20.50
2018-06-09T02:08:54.858Z,17.80
2018-06-09T02:09:52.036Z,19.30
2018-06-09T02:10:53.681Z,20.20
2018-06-09T02:11:53.870Z,18.60
2018-06-09T02:12:53.082Z,19.50
2018-06-09T02:13:52.080Z,20.00
2018-06-09T02:14:52.089Z,20.20
2018-06-09T02:15:52.120Z,18.80
2018-06-09T02:16:54.695Z,20.10
2018-06-09T02:17:54.654Z,21.20
2018-06-09T02:18:54.751Z,18.30
2018-06-09T02:19:52.176Z,15.70
2018-06-09T02:20:55.141Z,17.10
2018-06-09T02:21:52.182Z,16.10
2018-06-09T02:22:54.165Z,18.40
2018-06-09T02:23:52.231Z,19.90
2018-06-09T02:24:52.233Z,17.40
2018-06-09T02:25:52.266Z,21.10
2018-06-09T02:26:52.264Z,24.10
2018-06-09T02:30:35.961Z,16.30
2018-06-09T02:31:36.151Z,18.70
2018-06-09T02:32:34.101Z,21.50
2018-06-09T02:33:35.112Z,21.50
2018-06-09T02:34:34.683Z,16.90
2018-06-09T02:35:35.100Z,18.00
2018-06-09T02:36:34.097Z,21.70
2018-06-09T02:37:34.131Z,20.00
2018-06-09T02:38:34.183Z,19.90
2018-06-09T02:39:34.147Z,19.20
2018-06-09T02:40:34.284Z,19.40
2018-06-09T02:41:34.186Z,18.30
2018-06-09T02:42:34.312Z,20.10
2018-06-09T02:43:34.192Z,17.80
2018-06-09T02:44:34.307Z,18.20
2018-06-09T02:45:34.222Z,19.20
2018-06-09T02:46:34.337Z,16.30
2018-06-09T02:47:34.261Z,17.50
2018-06-09T02:48:34.336Z,22.30
2018-06-09T02:49:34.308Z,18.70
2018-06-09T02:50:34.348Z,19.20
2018-06-09T02:51:34.348Z,21.70
2018-06-09T02:52:34.360Z,17.70
2018-06-09T02:53:34.343Z,16.60
2018-06-09T02:54:34.380Z,20.40
2018-06-09T02:55:34.376Z,16.70
2018-06-09T02:56:35.417Z,18.50
2018-06-09T02:57:34.412Z,20.10
2018-06-09T02:58:35.428Z,18.30
2018-06-09T02:59:34.428Z,20.30
2018-06-09T03:00:34.556Z,19.40
2018-06-09T03:01:34.462Z,18.60
2018-06-09T03:02:34.536Z,19.70
2018-06-09T03:03:34.474Z,17.60
2018-06-09T03:04:34.543Z,18.50
2018-06-09T03:05:34.502Z,20.50
2018-06-09T03:06:34.565Z,16.80
2018-06-09T03:07:34.529Z,20.90
2018-06-09T03:08:34.593Z,17.90
2018-06-09T03:09:34.570Z,22.30
2018-06-09T03:10:34.685Z,23.10
2018-06-09T03:11:34.581Z,23.20
2018-06-09T03:12:34.703Z,17.10
2018-06-09T03:13:34.616Z,18.10
2018-06-09T03:14:34.725Z,15.20
2018-06-09T03:15:34.644Z,16.70
2018-06-09T03:16:34.728Z,17.60
2018-06-09T03:17:34.653Z,21.50
2018-06-09T03:18:34.753Z,18.80
2018-06-09T03:19:34.697Z,15.10
2018-06-09T03:20:34.765Z,17.40
2018-06-09T03:21:34.710Z,24.10
2018-06-09T03:22:34.779Z,18.70
2018-06-09T03:23:34.752Z,14.50
2018-06-09T03:24:34.772Z,18.40
2018-06-09T03:25:34.778Z,21.20
2018-06-09T03:26:34.890Z,16.40
2018-06-09T03:27:34.817Z,14.90
2018-06-09T03:28:34.904Z,18.30
2018-06-09T03:29:34.813Z,18.10
2018-06-09T03:30:34.927Z,16.80
2018-06-09T03:31:34.859Z,16.30
2018-06-09T03:32:34.970Z,16.90
2018-06-09T03:33:34.884Z,20.70
2018-06-09T03:34:34.945Z,18.50
2018-06-09T03:35:34.899Z,20.90
2018-06-09T03:36:34.962Z,16.90
2018-06-09T03:37:34.951Z,19.70
2018-06-09T03:38:36.002Z,18.70
2018-06-09T03:39:34.975Z,17.30
2018-06-09T03:40:34.992Z,16.60
2018-06-09T03:41:35.002Z,15.10
2018-06-09T03:42:35.128Z,15.50
2018-06-09T03:43:35.017Z,14.50
2018-06-09T03:44:35.133Z,15.80
2018-06-09T03:45:35.090Z,12.70
2018-06-09T03:46:36.160Z,17.60
2018-06-09T03:47:35.055Z,16.90
2018-06-09T03:48:35.159Z,17.60
2018-06-09T03:49:35.087Z,15.40
2018-06-09T03:50:36.186Z,15.20
2018-06-09T03:51:35.097Z,14.30
2018-06-09T03:52:35.204Z,19.70
2018-06-09T03:53:35.142Z,14.10
2018-06-09T03:54:35.194Z,17.50
2018-06-09T03:55:35.160Z,16.40
2018-06-09T03:56:35.208Z,14.10
2018-06-09T03:57:35.193Z,14.80
2018-06-09T03:58:35.319Z,15.80
2018-06-09T03:59:35.218Z,17.90
2018-06-09T04:00:35.329Z,15.10
2018-06-09T04:01:35.245Z,15.70
2018-06-09T04:02:35.364Z,18.50
2018-06-09T04:03:35.265Z,13.40
2018-06-09T04:04:35.375Z,14.50
2018-06-09T04:05:35.305Z,15.00
2018-06-09T04:06:36.414Z,16.00
2018-06-09T04:07:35.322Z,13.60
2018-06-09T04:08:35.391Z,13.60
2018-06-09T04:09:35.394Z,18.30
2018-06-09T04:10:35.425Z,13.50
2018-06-09T04:11:35.367Z,14.90
2018-06-09T04:12:36.453Z,14.80
2018-06-09T04:13:35.398Z,16.00
2018-06-09T04:14:35.508Z,15.90
2018-06-09T04:15:35.473Z,14.30
2018-06-09T04:16:35.553Z,14.20
2018-06-09T04:17:35.458Z,16.10
2018-06-09T04:18:35.541Z,16.60
2018-06-09T04:19:35.510Z,13.80
2018-06-09T04:20:35.596Z,14.70
2018-06-09T04:21:35.515Z,16.20
2018-06-09T04:22:36.598Z,17.90
2018-06-09T04:23:35.533Z,15.70
2018-06-09T04:24:35.624Z,13.10
2018-06-09T04:25:35.598Z,15.60
2018-06-09T04:26:36.627Z,15.10
2018-06-09T04:27:35.590Z,19.30
2018-06-09T04:28:35.630Z,14.30
2018-06-09T04:29:35.659Z,14.10
2018-06-09T04:30:35.729Z,18.60
2018-06-09T04:31:35.633Z,17.70
2018-06-09T04:32:35.747Z,16.00
2018-06-09T04:33:35.713Z,14.60
2018-06-09T04:34:35.772Z,17.70
2018-06-09T04:35:35.705Z,14.50
2018-06-09T04:36:35.781Z,17.70
2018-06-09T04:37:35.739Z,14.40
2018-06-09T04:38:36.816Z,15.10
2018-06-09T04:39:35.739Z,14.80
2018-06-09T04:40:35.813Z,19.30
2018-06-09T04:41:35.770Z,16.60
2018-06-09T04:42:35.816Z,15.90
2018-06-09T04:43:35.791Z,13.70
2018-06-09T04:44:35.840Z,14.10
2018-06-09T04:45:35.847Z,14.20
2018-06-09T04:46:35.957Z,14.70
2018-06-09T04:47:35.847Z,14.90
2018-06-09T04:48:35.979Z,15.10
2018-06-09T04:49:35.889Z,15.70
2018-06-09T04:50:35.960Z,15.50
2018-06-09T04:51:35.907Z,16.80
2018-06-09T04:52:35.986Z,14.20
2018-06-09T04:53:35.935Z,15.60
2018-06-09T04:54:36.002Z,16.90
2018-06-09T04:55:35.946Z,16.00
2018-06-09T04:56:36.014Z,18.50
2018-06-09T04:57:35.977Z,15.70
2018-06-09T04:58:36.027Z,13.70
2018-06-09T04:59:36.002Z,17.50
2018-06-09T05:00:36.031Z,14.90
2018-06-09T05:01:36.033Z,16.40
2018-06-09T05:02:36.078Z,18.20
2018-06-09T05:03:36.043Z,15.00
2018-06-09T05:04:36.197Z,15.90
2018-06-09T05:05:36.086Z,16.40
2018-06-09T05:06:36.212Z,16.70
2018-06-09T05:07:36.113Z,16.80
2018-06-09T05:08:36.218Z,16.70
2018-06-09T05:09:36.125Z,16.20
2018-06-09T05:10:36.209Z,16.50
2018-06-09T05:11:36.177Z,16.00
2018-06-09T05:12:36.225Z,13.90
2018-06-09T05:13:36.186Z,14.70
2018-06-09T05:14:36.251Z,16.10
2018-06-09T05:15:36.205Z,18.30
2018-06-09T05:16:36.254Z,15.40
2018-06-09T05:17:36.235Z,14.60
2018-06-09T05:18:36.268Z,16.40
2018-06-09T05:19:36.264Z,18.20
2018-06-09T05:20:36.386Z,17.80
2018-06-09T05:21:36.283Z,14.40
2018-06-09T05:22:36.434Z,15.60
2018-06-09T05:23:36.323Z,14.60
2018-06-09T05:24:36.414Z,14.90
2018-06-09T05:25:36.336Z,14.60
2018-06-09T05:26:36.444Z,13.00
2018-06-09T05:27:36.374Z,19.50
2018-06-09T05:28:36.466Z,14.80
2018-06-09T05:29:36.387Z,19.50
2018-06-09T05:30:36.466Z,20.30
2018-06-09T05:31:36.409Z,18.90
2018-06-09T05:32:36.530Z,14.60
2018-06-09T05:33:36.440Z,15.70
2018-06-09T05:34:36.481Z,16.10
2018-06-09T05:35:36.476Z,15.60
2018-06-09T05:36:36.515Z,17.50
2018-06-09T05:37:36.487Z,18.20
2018-06-09T05:38:36.783Z,13.90
2018-06-09T05:39:36.511Z,15.30
2018-06-09T05:40:36.641Z,16.40
2018-06-09T05:41:36.544Z,13.30
2018-06-09T05:42:37.684Z,17.90
2018-06-09T05:43:36.557Z,14.90
2018-06-09T05:44:37.695Z,15.70
2018-06-09T05:45:36.619Z,14.80
2018-06-09T05:46:36.678Z,14.70
2018-06-09T05:47:36.627Z,13.70
2018-06-09T05:48:36.693Z,13.20
2018-06-09T05:49:36.646Z,18.10
2018-06-09T05:50:36.701Z,13.70
2018-06-09T05:51:36.658Z,19.10
2018-06-09T05:52:36.722Z,13.60
2018-06-09T05:53:36.687Z,16.70
2018-06-09T05:54:36.825Z,17.20
2018-06-09T05:55:36.724Z,20.30
2018-06-09T05:56:36.853Z,15.10
2018-06-09T05:57:36.756Z,14.30
2018-06-09T05:58:36.866Z,15.70
2018-06-09T05:59:36.806Z,18.40
2018-06-09T06:00:36.861Z,18.30
2018-06-09T06:01:36.794Z,16.50
2018-06-09T06:02:36.876Z,15.60
2018-06-09T06:03:36.814Z,15.30
2018-06-09T06:04:36.887Z,14.60
2018-06-09T06:05:36.848Z,13.90
2018-06-09T06:06:36.919Z,15.30
2018-06-09T06:07:36.869Z,14.00
2018-06-09T06:08:36.929Z,18.00
2018-06-09T06:09:36.905Z,13.70
2018-06-09T06:10:36.948Z,18.70
2018-06-09T06:11:36.923Z,17.30
2018-06-09T06:12:36.975Z,14.50
2018-06-09T06:13:36.940Z,17.70
2018-06-09T06:14:37.061Z,15.60
2018-06-09T06:15:36.986Z,16.00
2018-06-09T06:16:36.995Z,15.40
2018-06-09T06:17:38.129Z,16.60
2018-06-09T06:18:37.016Z,13.80
2018-06-09T06:19:39.156Z,16.30
2018-06-09T06:20:37.038Z,20.70
2018-06-09T06:21:37.114Z,15.30
2018-06-09T06:22:37.099Z,14.20
2018-06-09T06:23:37.129Z,18.60
2018-06-09T06:24:37.088Z,14.30
2018-06-09T06:25:37.098Z,14.40
2018-06-09T06:26:38.239Z,13.30
2018-06-09T06:27:37.136Z,18.50
2018-06-09T06:28:37.182Z,17.30
2018-06-09T06:29:37.141Z,16.30
2018-06-09T06:30:37.183Z,18.20
2018-06-09T06:31:37.204Z,16.20
2018-06-09T06:32:37.198Z,16.00
2018-06-09T06:33:37.214Z,16.20
2018-06-09T06:34:37.238Z,16.60
2018-06-09T06:35:37.236Z,13.80
2018-06-09T06:36:37.238Z,16.70
2018-06-09T06:37:37.235Z,16.50
2018-06-09T06:38:37.313Z,16.10
2018-06-09T06:39:37.300Z,14.80
2018-06-09T06:40:37.316Z,19.00
2018-06-09T06:41:37.349Z,16.60
2018-06-09T06:42:37.356Z,17.90
2018-06-09T06:43:37.318Z,18.10
2018-06-09T06:44:37.382Z,14.00
2018-06-09T06:45:37.366Z,19.60
2018-06-09T06:46:38.413Z,20.60
2018-06-09T06:47:37.421Z,17.60
2018-06-09T06:48:39.473Z,16.20
2018-06-09T06:49:37.417Z,15.90
2018-06-09T06:50:37.591Z,22.00
2018-06-09T06:51:37.439Z,19.20
2018-06-09T06:52:37.481Z,14.30
2018-06-09T06:53:37.464Z,17.30
2018-06-09T06:54:37.532Z,17.50
2018-06-09T06:55:37.472Z,23.70
2018-06-09T06:56:37.597Z,15.00
2018-06-09T06:57:37.488Z,18.40
2018-06-09T06:58:37.594Z,19.10
2018-06-09T06:59:37.530Z,13.70
2018-06-09T07:00:37.632Z,14.70
2018-06-09T07:01:37.579Z,17.00
2018-06-09T07:02:37.595Z,15.80
2018-06-09T07:03:37.591Z,17.60
2018-06-09T07:04:37.649Z,15.60
2018-06-09T07:05:37.624Z,18.50
2018-06-09T07:06:37.619Z,16.30
2018-06-09T07:07:37.769Z,19.10
2018-06-09T07:08:37.638Z,19.10
2018-06-09T07:09:37.745Z,17.60
2018-06-09T07:10:37.678Z,19.40
2018-06-09T07:11:37.751Z,15.90
2018-06-09T07:12:37.680Z,14.30
2018-06-09T07:13:37.792Z,20.10
2018-06-09T07:14:37.725Z,20.40
2018-06-09T07:15:37.790Z,15.30
2018-06-09T07:16:37.732Z,16.00
2018-06-09T07:17:37.800Z,14.30
2018-06-09T07:18:37.774Z,14.80
2018-06-09T07:19:38.864Z,16.80
2018-06-09T07:20:37.802Z,16.50
2018-06-09T07:21:37.831Z,20.30
2018-06-09T07:22:37.831Z,15.80
2018-06-09T07:23:38.888Z,16.50
2018-06-09T07:24:37.852Z,17.20
2018-06-09T07:25:37.967Z,16.40
2018-06-09T07:26:37.854Z,20.10
2018-06-09T07:27:37.872Z,19.30
2018-06-09T07:28:39.030Z,20.80
2018-06-09T07:29:37.912Z,15.00
2018-06-09T07:30:38.029Z,17.10
2018-06-09T07:31:37.950Z,16.00
2018-06-09T07:32:37.947Z,18.60
2018-06-09T07:33:37.961Z,18.10
2018-06-09T07:34:37.994Z,19.10
2018-06-09T07:35:37.971Z,16.90
2018-06-09T07:36:38.042Z,21.60
2018-06-09T07:37:37.998Z,19.70
2018-06-09T07:38:38.020Z,19.80
2018-06-09T07:39:38.055Z,19.10
2018-06-09T07:40:38.046Z,17.80
2018-06-09T07:41:38.054Z,17.00
2018-06-09T07:42:38.196Z,17.60
2018-06-09T07:43:38.102Z,18.80
2018-06-09T07:44:38.190Z,15.10
2018-06-09T07:45:38.103Z,18.90
2018-06-09T07:46:38.127Z,22.30
2018-06-09T07:47:38.173Z,19.50
2018-06-09T07:48:38.157Z,19.40
2018-06-09T07:49:38.153Z,19.60
2018-06-09T07:50:38.208Z,18.30
2018-06-09T07:51:38.193Z,21.60
2018-06-09T07:52:38.233Z,17.90
2018-06-09T07:53:38.294Z,16.90
2018-06-09T07:54:38.308Z,16.80
2018-06-09T07:55:38.372Z,21.50
2018-06-09T07:56:38.252Z,19.60
2018-06-09T07:57:38.285Z,17.80
2018-06-09T07:58:38.293Z,19.10
2018-06-09T07:59:38.305Z,19.30
2018-06-09T08:00:38.318Z,19.00
2018-06-09T08:01:38.303Z,19.40
2018-06-09T08:02:38.371Z,17.40
2018-06-09T08:03:38.336Z,17.90
2018-06-09T08:04:39.375Z,22.20
2018-06-09T08:05:38.369Z,20.70
2018-06-09T08:06:38.435Z,17.60
2018-06-09T08:07:38.390Z,18.30
2018-06-09T08:08:38.421Z,19.40
2018-06-09T08:09:38.409Z,24.90
2018-06-09T08:10:38.424Z,16.70
2018-06-09T08:11:38.473Z,21.90
2018-06-09T08:12:38.477Z,20.80
2018-06-09T08:13:38.471Z,20.80
2018-06-09T08:14:38.477Z,21.20
2018-06-09T08:15:38.491Z,21.50
2018-06-09T08:16:38.511Z,18.80
2018-06-09T08:17:38.545Z,18.80
2018-06-09T08:18:38.563Z,18.20
2018-06-09T08:19:38.539Z,18.50
2018-06-09T08:20:38.577Z,19.90
2018-06-09T08:21:38.554Z,17.40
2018-06-09T08:22:38.588Z,18.40
2018-06-09T08:23:38.591Z,19.20
2018-06-09T08:24:38.607Z,21.40
2018-06-09T08:25:38.655Z,20.90
2018-06-09T08:26:38.658Z,21.10
2018-06-09T08:27:38.670Z,22.50
2018-06-09T08:28:38.677Z,20.80
2018-06-09T08:29:38.688Z,20.10
2018-06-09T08:30:38.739Z,21.20
2018-06-09T08:31:38.699Z,16.10
2018-06-09T08:32:38.725Z,18.60
2018-06-09T08:33:39.115Z,19.30
2018-06-09T08:34:38.753Z,17.90
2018-06-09T08:35:39.069Z,18.40
2018-06-09T08:36:38.772Z,20.50
2018-06-09T08:37:38.777Z,21.60
2018-06-09T08:38:38.808Z,18.70
2018-06-09T08:39:38.802Z,21.90
2018-06-09T08:40:38.840Z,19.60
2018-06-09T08:41:38.865Z,20.00
2018-06-09T08:42:38.871Z,21.10
2018-06-09T08:43:38.853Z,21.70
2018-06-09T08:44:38.882Z,22.20
2018-06-09T08:45:38.874Z,21.70
2018-06-09T08:46:38.898Z,21.90
2018-06-09T08:47:38.921Z,20.30
2018-06-09T08:48:39.960Z,23.30
2018-06-09T08:49:38.953Z,22.60
2018-06-09T08:50:44.072Z,21.20
2018-06-09T08:51:38.968Z,18.20
2018-06-09T08:52:40.009Z,19.10
2018-06-09T08:53:38.995Z,17.50
2018-06-09T08:54:39.050Z,22.50
2018-06-09T08:55:39.011Z,22.40
2018-06-09T08:56:40.093Z,22.10
2018-06-09T08:57:39.076Z,20.70
2018-06-09T08:58:39.131Z,19.50
2018-06-09T08:59:39.064Z,18.10
2018-06-09T09:00:39.128Z,19.00
2018-06-09T09:01:39.120Z,20.30
2018-06-09T09:02:40.134Z,18.30
2018-06-09T09:03:39.158Z,22.00
2018-06-09T09:04:39.161Z,21.40
2018-06-09T09:05:39.164Z,18.90
2018-06-09T09:06:39.240Z,19.80
2018-06-09T09:07:39.198Z,19.20
2018-06-09T09:08:40.195Z,21.20
2018-06-09T09:09:39.207Z,19.70
2018-06-09T09:10:40.267Z,20.00
2018-06-09T09:11:39.244Z,21.40
2018-06-09T09:12:39.260Z,19.80
2018-06-09T09:13:39.286Z,24.70
2018-06-09T09:14:39.338Z,19.40
2018-06-09T09:15:39.284Z,19.90
2018-06-09T09:16:39.346Z,18.60
2018-06-09T09:17:39.367Z,20.20
2018-06-09T09:18:39.396Z,24.00
2018-06-09T09:19:39.354Z,20.60
2018-06-09T09:20:39.369Z,25.30
2018-06-09T09:21:39.395Z,18.20
2018-06-09T09:22:41.457Z,20.70
2018-06-09T09:23:39.424Z,25.50
2018-06-09T09:24:40.444Z,21.20
2018-06-09T09:25:39.427Z,20.60
2018-06-09T09:26:39.437Z,22.10
2018-06-09T09:27:39.489Z,18.50
2018-06-09T09:28:39.522Z,19.90
2018-06-09T09:29:39.489Z,22.60
2018-06-09T09:30:39.497Z,20.40
2018-06-09T09:31:39.552Z,22.60
2018-06-09T09:32:39.601Z,20.70
2018-06-09T09:33:39.573Z,22.00
2018-06-09T09:34:39.564Z,21.90
2018-06-09T09:35:39.563Z,20.70
2018-06-09T09:36:39.574Z,20.50
2018-06-09T09:37:39.618Z,20.90
2018-06-09T09:38:39.603Z,20.10
2018-06-09T09:39:39.618Z,22.20
2018-06-09T09:40:40.645Z,20.10
2018-06-09T09:41:39.646Z,20.20
2018-06-09T09:42:39.678Z,21.40
2018-06-09T09:43:39.668Z,20.70
2018-06-09T09:45:07.698Z,23.40
2018-06-09T09:45:39.740Z,19.80
2018-06-09T09:46:41.754Z,19.50
2018-06-09T09:47:39.707Z,24.10
2018-06-09T09:48:40.732Z,24.60
2018-06-09T09:49:39.771Z,21.50
2018-06-09T09:50:39.768Z,21.30
2018-06-09T09:51:39.764Z,22.30
2018-06-09T09:52:39.827Z,22.00
2018-06-09T09:53:39.829Z,23.20
2018-06-09T09:54:39.832Z,23.30
2018-06-09T09:55:39.825Z,21.70
2018-06-09T09:56:39.848Z,22.50
2018-06-09T09:57:39.847Z,21.80
2018-06-09T09:58:40.878Z,23.70
2018-06-09T09:59:39.915Z,20.80
2018-06-09T10:00:39.940Z,21.30
2018-06-09T10:01:39.923Z,21.80
2018-06-09T10:02:39.925Z,22.50
2018-06-09T10:03:39.954Z,21.60
2018-06-09T10:04:39.994Z,20.30
2018-06-09T10:05:39.979Z,24.50
2018-06-09T10:06:40.044Z,20.90
2018-06-09T11:16:58.287Z,22.60
2018-06-09T11:17:56.286Z,25.90
2018-06-09T11:18:56.301Z,23.80
2018-06-09T11:19:56.312Z,23.60
2018-06-09T11:20:56.364Z,24.70
2018-06-09T11:21:56.421Z,25.50
2018-06-09T11:22:56.367Z,24.80
2018-06-09T11:23:56.386Z,25.50
2018-06-09T11:24:56.530Z,25.80
2018-06-09T11:25:56.414Z,24.10
2018-06-09T11:26:56.429Z,22.10
2018-06-09T11:27:56.485Z,23.90
2018-06-09T11:28:56.460Z,23.10
2018-06-09T11:29:56.473Z,25.00
2018-06-09T11:30:56.577Z,25.00
2018-06-09T11:31:56.509Z,26.80
2018-06-09T11:32:56.509Z,25.20
2018-06-09T11:33:56.537Z,25.90
2018-06-09T11:34:56.532Z,23.70
2018-06-09T11:35:56.575Z,26.90
2018-06-09T11:36:57.723Z,26.10
2018-06-09T11:37:56.592Z,24.40
2018-06-09T11:38:56.725Z,23.60
2018-06-09T11:39:56.664Z,25.80
2018-06-09T11:40:56.636Z,23.40
2018-06-09T11:41:56.681Z,26.60
2018-06-09T11:42:56.668Z,23.50
2018-06-09T11:43:56.699Z,23.00
2018-06-09T11:44:56.698Z,24.70
2018-06-09T11:45:56.830Z,23.60
2018-06-09T11:46:56.728Z,24.00
2018-06-09T11:47:56.863Z,22.60
2018-06-09T11:48:56.747Z,26.30
2018-06-09T11:49:56.813Z,25.80
2018-06-09T11:50:56.790Z,24.20
2018-06-09T11:51:56.886Z,22.30
2018-06-09T11:52:57.023Z,22.80
2018-06-09T11:53:56.843Z,23.50
2018-06-09T11:54:56.929Z,23.50
2018-06-09T11:55:56.868Z,23.00
2018-06-09T11:56:57.059Z,22.50
2018-06-09T11:57:56.917Z,24.10
2018-06-09T11:58:57.032Z,25.80
2018-06-09T11:59:56.925Z,21.30
2018-06-09T12:00:56.965Z,24.40
2018-06-09T12:01:57.050Z,26.70
2018-06-09T12:02:57.015Z,24.80
2018-06-09T12:03:57.097Z,23.60
2018-06-09T12:04:57.010Z,23.70
2018-06-09T12:05:57.016Z,25.40
2018-06-09T12:06:57.024Z,24.80
2018-06-09T12:07:57.032Z,22.70
2018-06-09T12:08:57.078Z,24.40
2018-06-09T12:09:57.080Z,28.90
2018-06-09T12:10:57.118Z,26.40
2018-06-09T12:11:57.251Z,28.10
2018-06-09T12:12:57.144Z,28.60
2018-06-09T12:13:57.155Z,22.70
2018-06-09T12:14:57.156Z,22.40
2018-06-09T12:15:57.186Z,23.10
2018-06-09T12:16:57.204Z,21.90
2018-06-09T12:17:57.204Z,27.50
2018-06-09T12:18:57.389Z,27.70
2018-06-09T12:19:57.245Z,24.70
2018-06-09T12:20:57.424Z,23.50
2018-06-09T12:21:57.274Z,22.60
2018-06-09T12:22:57.433Z,23.40
2018-06-09T12:23:57.319Z,24.40
2018-06-09T12:24:57.398Z,23.30
2018-06-09T12:25:57.330Z,23.40
2018-06-09T12:26:59.517Z,21.80
2018-06-09T12:27:57.349Z,21.10
2018-06-09T12:28:57.383Z,21.90
2018-06-09T12:29:57.407Z,20.80
2018-06-09T12:30:57.439Z,21.20
2018-06-09T12:31:57.444Z,23.50
2018-06-09T12:32:57.477Z,23.10
2018-06-09T12:34:01.296Z,24.00
2018-06-09T12:34:58.382Z,23.60
2018-06-09T12:35:57.600Z,22.60
2018-06-09T12:36:58.471Z,23.90
2018-06-09T12:38:00.291Z,23.60
2018-06-09T12:38:57.555Z,23.70
2018-06-09T12:41:41.137Z,25.70
2018-06-09T12:42:41.166Z,23.10
2018-06-09T12:43:45.799Z,22.30
2018-06-09T12:44:41.210Z,23.90
2018-06-09T12:45:57.788Z,26.80
2018-06-09T12:46:41.202Z,23.40
2018-06-09T12:47:47.079Z,25.00
2018-06-09T12:48:41.258Z,20.20
2018-06-09T12:49:41.344Z,21.90
2018-06-09T12:50:41.312Z,25.50
2018-06-09T12:51:53.341Z,24.00
2018-06-09T12:52:41.309Z,21.70
2018-06-09T12:53:46.335Z,23.10
2018-06-09T12:54:41.363Z,22.90
2018-06-09T12:55:41.352Z,23.20
2018-06-09T12:56:41.426Z,22.30
2018-06-09T12:57:41.416Z,22.20
2018-06-09T12:58:41.513Z,22.40
2018-06-09T12:59:41.406Z,23.10
2018-06-09T13:00:41.424Z,24.40
2018-06-09T13:01:41.542Z,24.20
2018-06-09T13:02:41.489Z,23.60
2018-06-09T13:03:41.530Z,24.00
2018-06-09T13:04:41.494Z,23.00
2018-06-09T13:05:41.597Z,24.80
2018-06-09T13:06:41.533Z,22.50
2018-06-09T13:07:42.585Z,20.70
2018-06-09T13:08:41.562Z,21.50
2018-06-09T13:09:41.686Z,20.30
2018-06-09T13:10:41.584Z,21.60
2018-06-09T13:11:41.722Z,23.80
2018-06-09T13:12:41.623Z,21.00
2018-06-09T13:13:41.706Z,21.30
2018-06-09T13:14:41.673Z,23.30
2018-06-09T13:15:41.740Z,20.40
2018-06-09T13:16:41.684Z,19.70
2018-06-09T13:17:43.787Z,22.10
2018-06-09T13:18:41.726Z,21.80
2018-06-09T13:19:41.740Z,19.90
2018-06-09T13:20:41.759Z,19.90
2018-06-09T13:21:41.787Z,19.20
2018-06-09T13:22:41.890Z,24.30
2018-06-09T13:23:41.821Z,20.60
2018-06-09T13:24:41.816Z,21.40
2018-06-09T13:25:41.835Z,24.40
2018-06-09T13:26:41.858Z,27.60
2018-06-09T13:27:41.869Z,21.50
2018-06-09T13:28:41.881Z,19.00
2018-06-09T13:29:41.907Z,25.20
2018-06-09T13:30:48.823Z,19.90
2018-06-09T13:31:41.953Z,19.70
2018-06-09T13:59:53.029Z,23.90
2018-06-09T14:00:53.007Z,23.00
2018-06-09T14:01:53.145Z,26.20
2018-06-09T14:02:53.281Z,25.50
2018-06-09T14:03:53.173Z,24.90
2018-06-09T14:04:53.134Z,27.50
2018-06-09T14:05:54.168Z,21.30
2018-06-09T14:06:53.137Z,24.00
2018-06-09T14:07:53.128Z,23.70
2018-06-09T14:08:54.186Z,26.10
2018-06-09T14:09:53.165Z,27.90
2018-06-09T14:10:53.217Z,23.90
2018-06-09T14:11:53.285Z,26.50
2018-06-09T14:12:53.219Z,23.90
2018-06-09T14:13:53.308Z,26.80
2018-06-09T14:14:53.259Z,24.40
2018-06-09T14:15:53.338Z,23.20
2018-06-09T14:16:53.282Z,26.60
2018-06-09T14:17:53.333Z,28.00
2018-06-09T14:18:53.329Z,23.80
2018-06-09T14:19:53.504Z,23.90
2018-06-09T14:20:53.392Z,23.60
2018-06-09T14:21:53.492Z,22.90
2018-06-09T14:22:53.414Z,23.00
2018-06-09T14:23:53.494Z,23.40
2018-06-09T14:24:53.433Z,24.00
2018-06-09T14:25:54.544Z,22.90
2018-06-09T14:26:53.485Z,23.20
2018-06-09T14:27:53.540Z,21.00
2018-06-09T14:28:53.503Z,24.60
2018-06-09T14:29:53.666Z,23.30
2018-06-09T14:30:53.533Z,23.50
2018-06-09T14:31:53.561Z,22.50
2018-06-09T14:32:53.880Z,24.50
2018-06-09T14:33:53.586Z,24.50
2018-06-09T14:34:55.736Z,26.10
2018-06-09T14:35:53.635Z,24.20
2018-06-09T14:36:54.691Z,22.50
2018-06-09T14:37:53.669Z,20.90
2018-06-09T14:38:53.747Z,22.00
2018-06-09T14:39:53.713Z,22.30
2018-06-09T14:40:53.719Z,27.60